Time;durP1;ratioP1;P1;durP2;ratioP2;P2;SDS_P1;SDS_P2;PMS_P1;PMS_P2;Temp;Humidity;BMP_temperature;BMP_pressure;BME280_temperature;BME280_humidity;BME280_pressure;Samples;Min_cycle;Max_cycle;Signal;HPM_P1;HPM_P2
2022/09/05 00:00:23;;;;;;;5.05;3.65;;;;;;;23.71;46.48;101818.34;4980766;28;20106;-69
2022/09/05 00:03:19;;;;;;;5.97;3.75;;;;;;;23.70;46.32;101816.69;4965616;28;20121;-69
2022/09/05 00:06:00;;;;;;;5.85;3.70;;;;;;;23.70;46.42;101814.03;4973766;28;20057;-69
2022/09/05 00:09:02;;;;;;;5.60;3.67;;;;;;;23.69;46.42;101812.34;4973850;28;20042;-69
2022/09/05 00:11:37;;;;;;;9.30;4.20;;;;;;;23.67;46.05;101810.78;4967939;28;20033;-69
2022/09/05 00:14:40;;;;;;;6.03;3.35;;;;;;;23.68;46.12;101807.16;4975096;28;20037;-69
2022/09/05 00:17:24;;;;;;;6.30;3.70;;;;;;;23.67;45.99;101808.97;4974003;28;20046;-69
2022/09/05 00:19:55;;;;;;;;;;;;;;;23.65;46.38;101805.59;4975064;28;20035;-68
2022/09/05 00:23:06;;;;;;;7.00;3.40;;;;;;;23.67;46.23;101810.78;4969904;28;19921;-68
2022/09/05 00:26:02;;;;;;;5.63;3.50;;;;;;;23.66;46.18;101815.28;4933086;28;20144;-68
2022/09/05 00:28:40;;;;;;;6.00;3.42;;;;;;;23.64;46.36;101806.59;4930243;29;20039;-68
2022/09/05 00:31:21;;;;;;;7.53;3.50;;;;;;;23.64;46.31;101808.38;4965711;28;20046;-68
2022/09/05 00:34:11;;;;;;;6.00;3.40;;;;;;;23.63;46.12;101804.91;4976727;28;20145;-68
2022/09/05 00:36:46;;;;;;;4.80;3.00;;;;;;;23.60;46.16;101804.34;4976578;28;20038;-68
2022/09/05 00:39:18;;;;;;;5.78;3.58;;;;;;;23.54;46.18;101798.59;4967157;28;20038;-67
2022/09/05 00:41:49;;;;;;;5.80;3.22;;;;;;;23.60;46.14;101805.19;4966773;28;20162;-67
2022/09/05 00:44:18;;;;;;;5.95;3.45;;;;;;;23.58;46.48;101801.00;4973873;28;20042;-67
2022/09/05 00:46:54;;;;;;;6.50;3.10;;;;;;;23.56;46.49;101795.81;4984060;28;20037;-68
2022/09/05 00:49:35;;;;;;;5.38;3.08;;;;;;;23.58;46.14;101798.31;4979863;28;20031;-68
2022/09/05 00:52:16;;;;;;;5.03;3.05;;;;;;;23.59;46.46;101803.50;4974590;28;20694;-68
2022/09/05 00:55:17;;;;;;;7.40;3.20;;;;;;;23.58;46.50;101796.50;4973165;28;20077;-68
2022/09/05 00:58:09;;;;;;;6.00;3.10;;;;;;;23.55;46.45;101791.44;4974328;28;20030;-68
2022/09/05 01:00:52;;;;;;;5.45;3.20;;;;;;;23.57;46.17;101794.81;4983615;28;20034;-68
2022/09/05 01:03:26;;;;;;;5.63;2.85;;;;;;;23.58;46.08;101801.81;4971051;28;20423;-68
2022/09/05 01:06:29;;;;;;;6.78;3.05;;;;;;;23.55;46.47;101800.25;4979921;28;20034;-68
2022/09/05 01:09:18;;;;;;;5.53;3.20;;;;;;;23.55;46.11;101802.09;4984184;28;20463;-67
2022/09/05 01:11:50;;;;;;;5.28;3.60;;;;;;;23.52;46.02;101795.22;4968932;28;20039;-69
2022/09/05 01:14:19;;;;;;;5.63;3.25;;;;;;;23.55;46.37;101800.25;4964896;28;20379;-68
2022/09/05 01:17:11;;;;;;;5.78;3.28;;;;;;;23.54;46.32;101800.41;4964577;28;20038;-67
2022/09/05 01:19:42;;;;;;;5.90;3.42;;;;;;;23.53;46.25;101796.06;4972001;28;20081;-68
2022/09/05 01:22:37;;;;;;;4.55;2.85;;;;;;;23.51;46.29;101787.38;4975442;28;20038;-67
2022/09/05 01:25:38;;;;;;;5.32;3.17;;;;;;;23.52;46.19;101799.72;4977625;28;20487;-68
2022/09/05 01:28:19;;;;;;;5.88;3.25;;;;;;;23.50;46.26;101793.69;4983239;28;20039;-68
2022/09/05 01:30:51;;;;;;;8.00;3.22;;;;;;;23.46;45.89;101795.75;4976852;28;20096;-67
2022/09/05 01:33:52;;;;;;;5.90;3.08;;;;;;;23.47;46.40;101794.78;4972246;28;20038;-67
2022/09/05 01:36:44;;;;;;;4.95;2.92;;;;;;;23.49;46.27;101800.81;4965082;28;20039;-68
2022/09/05 01:39:32;;;;;;;6.22;3.28;;;;;;;23.46;45.89;101789.59;4977687;28;20481;-67
2022/09/05 01:42:32;;;;;;;7.15;2.83;;;;;;;23.45;46.43;101788.78;4966933;28;20089;-68
2022/09/05 01:45:14;;;;;;;4.35;2.85;;;;;;;23.47;46.13;101789.47;4928109;28;20044;-67
2022/09/05 01:47:55;;;;;;;4.75;2.92;;;;;;;23.47;46.02;101786.81;4964162;28;20035;-68
2022/09/05 01:50:44;;;;;;;4.82;3.13;;;;;;;23.47;46.47;101791.31;4975989;28;20030;-69
2022/09/05 01:53:26;;;;;;;6.07;3.08;;;;;;;23.48;46.33;101782.31;4961906;28;20039;-68
2022/09/05 01:56:16;;;;;;;4.65;2.80;;;;;;;23.46;45.92;101793.09;4968498;28;20035;-68
2022/09/05 01:59:05;;;;;;;4.88;3.33;;;;;;;23.44;46.44;101788.91;4982941;28;20034;-68
2022/09/05 02:02:00;;;;;;;5.43;3.00;;;;;;;23.46;46.36;101787.78;4983119;28;20053;-68
2022/09/05 02:05:03;;;;;;;5.05;2.90;;;;;;;23.46;46.14;101794.94;4963764;28;20030;-68
2022/09/05 02:07:34;;;;;;;4.60;2.80;;;;;;;23.46;45.91;101794.94;4974006;28;20030;-68
2022/09/05 02:10:17;;;;;;;5.15;2.88;;;;;;;23.44;46.18;101786.25;4982756;28;20045;-68
2022/09/05 02:12:48;;;;;;;5.35;2.83;;;;;;;23.42;46.07;101788.22;4983003;28;20581;-68
2022/09/05 02:15:16;;;;;;;4.80;2.90;;;;;;;23.43;46.20;101792.53;4968285;28;20053;-67
2022/09/05 02:17:41;;;;;;;4.60;2.65;;;;;;;23.45;46.11;101795.91;4974985;28;20505;-68
2022/09/05 02:20:15;;;;;;;4.73;2.80;;;;;;;23.43;45.94;101800.53;4967152;28;20038;-69
2022/09/05 02:22:55;;;;;;;5.20;2.83;;;;;;;23.42;45.93;101797.03;4982673;28;20039;-68
2022/09/05 02:25:28;;;;;;;4.72;2.67;;;;;;;23.39;46.39;101793.81;4971525;28;20040;-67
2022/09/05 02:28:02;;;;;;;6.33;3.20;;;;;;;23.38;45.87;101792.94;4980663;28;20026;-68
2022/09/05 02:30:32;;;;;;;;;;;;;;;23.40;45.92;101806.13;4971522;28;20050;-68
2022/09/05 02:33:15;;;;;;;4.97;2.95;;;;;;;23.36;45.87;101797.56;4982584;28;19922;-68
2022/09/05 02:36:07;;;;;;;4.85;2.83;;;;;;;23.39;45.92;101804.44;4982308;28;20482;-68
2022/09/05 02:38:43;;;;;;;5.25;2.92;;;;;;;23.38;45.96;101800.94;4959465;28;20057;-67
2022/09/05 02:41:28;;;;;;;4.60;2.92;;;;;;;23.36;46.22;101798.41;4978174;28;20042;-68
2022/09/05 02:43:57;;;;;;;;;;;;;;;23.35;46.18;101802.06;4982841;28;20038;-67
2022/09/05 02:46:40;;;;;;;4.85;2.85;;;;;;;23.35;45.96;101802.06;4981859;28;20359;-68
2022/09/05 02:49:12;;;;;;;5.68;2.65;;;;;;;23.35;45.83;101801.19;4977319;28;20116;-68
2022/09/05 02:51:54;;;;;;;4.75;2.90;;;;;;;23.35;45.77;101803.84;4962733;28;20038;-68
2022/09/05 02:54:25;;;;;;;4.40;2.60;;;;;;;23.33;45.76;101795.19;4980376;28;20085;-68
2022/09/05 02:56:53;;;;;;;4.45;2.80;;;;;;;23.35;46.14;101803.84;4973098;28;20126;-69
2022/09/05 02:59:46;;;;;;;5.10;2.95;;;;;;;23.34;45.93;101794.22;4962787;28;20476;-68
2022/09/05 03:02:35;;;;;;;5.68;2.92;;;;;;;23.33;45.86;101798.69;4962827;28;20045;-68
2022/09/05 03:05:07;;;;;;;4.43;2.90;;;;;;;23.31;46.22;101805.97;4965029;28;20045;-69
2022/09/05 03:07:54;;;;;;;4.50;2.70;;;;;;;23.31;45.88;101802.47;4978409;28;20026;-68
2022/09/05 03:10:57;;;;;;;6.28;3.08;;;;;;;23.31;46.14;101799.81;4989766;28;20042;-69
2022/09/05 03:13:41;;;;;;;4.97;2.85;;;;;;;23.27;46.00;101790.41;4965292;28;20419;-69
2022/09/05 03:16:25;;;;;;;5.03;2.80;;;;;;;23.30;45.79;101798.94;4972198;28;20081;-68
2022/09/05 03:19:18;;;;;;;5.05;2.90;;;;;;;23.30;45.99;101801.59;4979004;28;20046;-67
2022/09/05 03:22:02;;;;;;;5.30;2.95;;;;;;;23.28;45.89;101798.25;4968689;28;20030;-67
2022/09/05 03:24:57;;;;;;;5.03;2.85;;;;;;;23.26;46.16;101794.91;4977510;28;20039;-68
2022/09/05 03:27:54;;;;;;;4.15;2.78;;;;;;;23.29;45.91;101799.94;4974246;28;20049;-68
2022/09/05 03:30:21;;;;;;;4.63;3.00;;;;;;;23.26;45.77;101792.22;4970630;28;20116;-69
2022/09/05 03:33:25;;;;;;;5.00;2.90;;;;;;;23.28;45.76;101797.41;4972451;28;20129;-68
2022/09/05 03:36:16;;;;;;;4.78;2.88;;;;;;;23.22;45.93;101792.63;4953077;28;20126;-67
2022/09/05 03:39:01;;;;;;;5.15;3.05;;;;;;;23.25;45.94;101790.53;4971950;28;20431;-68
2022/09/05 03:42:03;;;;;;;4.72;2.80;;;;;;;23.25;45.93;101798.53;4967276;28;20042;-67
2022/09/05 03:44:44;;;;;;;5.18;3.13;;;;;;;23.24;45.81;101809.28;4981821;28;20031;-68
2022/09/05 03:47:40;;;;;;;4.53;2.83;;;;;;;23.23;45.78;101800.47;4981891;28;20065;-68
2022/09/05 03:50:19;;;;;;;4.50;3.08;;;;;;;23.22;46.04;101804.09;4963877;28;20031;-68
2022/09/05 03:53:08;;;;;;;4.72;3.08;;;;;;;23.19;45.60;101791.09;4971570;28;20091;-68
2022/09/05 03:56:04;;;;;;;5.32;2.75;;;;;;;23.21;45.84;101790.94;4973151;28;20046;-68
2022/09/05 03:58:54;;;;;;;4.85;2.50;;;;;;;23.21;45.76;101789.16;4979563;28;20042;-67
2022/09/05 04:01:26;;;;;;;4.35;2.70;;;;;;;23.20;45.98;101797.25;4980745;28;20034;-68
2022/09/05 04:04:01;;;;;;;4.47;2.72;;;;;;;23.21;45.85;101798.91;4981525;28;20037;-68
2022/09/05 04:06:43;;;;;;;4.75;3.15;;;;;;;23.18;45.93;101787.59;4981378;28;20042;-68
2022/09/05 04:09:15;;;;;;;5.47;2.80;;;;;;;23.18;45.53;101787.59;4971749;28;20113;-69
2022/09/05 04:11:47;;;;;;;5.32;3.17;;;;;;;23.20;45.87;101799.91;4962496;28;20039;-68
2022/09/05 04:14:24;;;;;;;4.65;2.58;;;;;;;23.21;45.54;101798.91;4970113;28;20073;-68
2022/09/05 04:16:59;;;;;;;4.22;2.75;;;;;;;23.20;45.99;101799.91;4971355;28;20533;-68
2022/09/05 04:19:39;;;;;;;4.57;2.58;;;;;;;23.19;45.73;101804.38;4977569;28;20034;-68
2022/09/05 04:22:38;;;;;;;4.03;2.58;;;;;;;23.18;45.52;101803.53;4969572;28;20038;-68
2022/09/05 04:25:14;;;;;;;6.15;2.90;;;;;;;23.17;45.80;101793.88;4978692;28;20041;-67
2022/09/05 04:27:54;;;;;;;4.45;2.60;;;;;;;23.18;45.86;101800.88;4982719;28;20034;-68
2022/09/05 04:30:44;;;;;;;4.90;2.80;;;;;;;23.16;45.70;101794.88;4984290;28;20054;-69
2022/09/05 04:33:20;;;;;;;5.18;2.95;;;;;;;23.14;45.90;101791.47;4984534;28;20050;-68
2022/09/05 04:36:05;;;;;;;6.00;3.03;;;;;;;23.14;45.54;101795.97;4978456;28;20467;-68
2022/09/05 04:38:37;;;;;;;5.70;2.80;;;;;;;23.14;45.77;101798.63;4965356;28;20078;-68
2022/09/05 04:41:08;;;;;;;4.38;2.70;;;;;;;23.14;45.91;101790.66;4965510;28;20038;-68
2022/09/05 04:43:42;;;;;;;4.93;2.55;;;;;;;23.15;45.68;101801.16;4973499;28;20018;-68
2022/09/05 04:46:23;;;;;;;5.30;3.00;;;;;;;23.13;45.69;101804.91;4984413;28;20077;-68
2022/09/05 04:48:58;;;;;;;4.32;2.75;;;;;;;23.15;45.53;101802.97;4984220;28;20482;-68
2022/09/05 04:51:35;;;;;;;4.90;2.85;;;;;;;23.12;45.76;101808.56;4984448;28;20034;-68
2022/09/05 04:54:12;;;;;;;6.05;3.03;;;;;;;23.14;45.50;101820.72;4978170;28;20865;-68
2022/09/05 04:56:44;;;;;;;4.80;3.00;;;;;;;23.11;45.77;101810.38;4970820;28;20042;-68
2022/09/05 04:59:16;;;;;;;5.45;2.90;;;;;;;23.12;45.71;101819.19;4971243;28;20289;-68
2022/09/05 05:01:52;;;;;;;5.40;2.90;;;;;;;23.07;45.27;101802.78;4972211;28;20545;-68
2022/09/05 05:04:23;;;;;;;4.45;2.70;;;;;;;23.14;45.24;101815.41;4975208;28;20038;-68
2022/09/05 05:07:03;;;;;;;5.00;2.58;;;;;;;23.13;45.69;101820.88;4981607;28;20034;-68
2022/09/05 05:09:38;;;;;;;7.65;3.10;;;;;;;23.10;45.25;101810.53;4974354;28;20022;-69
2022/09/05 05:12:31;;;;;;;5.00;3.15;;;;;;;23.12;45.51;101819.19;4976856;28;20076;-68
2022/09/05 05:15:07;;;;;;;5.15;3.20;;;;;;;23.08;45.53;101815.13;4966824;28;20483;-68
2022/09/05 05:17:39;;;;;;;5.63;3.15;;;;;;;23.11;45.86;101823.66;4970078;28;20038;-68
2022/09/05 05:20:30;;;;;;;5.28;3.08;;;;;;;23.12;45.32;101819.19;4981556;28;20519;-68
2022/09/05 05:23:12;;;;;;;5.00;3.03;;;;;;;23.11;45.36;101825.47;4975587;28;20034;-68
2022/09/05 05:25:59;;;;;;;4.95;2.97;;;;;;;23.13;45.31;101827.03;4973606;28;20040;-67
2022/09/05 05:28:29;;;;;;;5.10;3.17;;;;;;;23.08;45.70;101834.59;4976834;28;20073;-68
2022/09/05 05:31:07;;;;;;;5.75;2.90;;;;;;;23.10;45.73;101832.63;4970630;28;20050;-68
2022/09/05 05:33:36;;;;;;;4.82;3.08;;;;;;;23.10;45.56;101829.13;4972859;28;20054;-68
2022/09/05 05:36:07;;;;;;;5.40;2.90;;;;;;;23.07;45.79;101816.91;4982986;28;20060;-69
2022/09/05 05:38:32;;;;;;;4.50;2.80;;;;;;;23.11;45.34;101830.81;4983686;28;20105;-69
2022/09/05 05:41:14;;;;;;;6.97;3.30;;;;;;;23.10;45.49;101824.66;4982024;28;20459;-69
2022/09/05 05:43:43;;;;;;;5.10;3.03;;;;;;;23.11;45.79;101823.66;4967488;28;20041;-68
2022/09/05 05:46:11;;;;;;;5.50;3.13;;;;;;;23.11;45.59;101823.66;4972542;28;20056;-68
2022/09/05 05:48:39;;;;;;;4.88;3.35;;;;;;;23.12;45.38;101829.84;4974686;28;20495;-67
2022/09/05 05:51:16;;;;;;;6.43;3.40;;;;;;;23.08;45.80;101815.97;4977972;28;20121;-68
2022/09/05 05:54:20;;;;;;;5.60;3.20;;;;;;;23.13;45.54;101831.50;4978688;28;20038;-67
2022/09/05 05:56:53;;;;;;;7.82;3.97;;;;;;;23.03;45.50;101831.44;4969769;28;20043;-69
2022/09/05 05:59:31;;;;;;;7.60;4.77;;;;;;;22.70;46.60;101836.03;4971466;28;20383;-71
2022/09/05 06:02:08;;;;;;;8.07;4.47;;;;;;;22.25;47.57;101837.09;4975058;28;20031;-70
2022/09/05 06:05:04;;;;;;;8.45;4.65;;;;;;;21.83;48.93;101839.69;4971195;28;20121;-69
2022/09/05 06:07:43;;;;;;;9.15;4.88;;;;;;;21.46;49.86;101839.97;4973718;28;20030;-69
2022/09/05 06:10:44;;;;;;;7.70;4.47;;;;;;;21.23;50.87;101841.78;4978912;28;20042;-66
2022/09/05 06:13:38;;;;;;;6.35;3.55;;;;;;;21.38;51.25;101859.13;4966793;28;20123;-66
2022/09/05 06:16:36;;;;;;;6.97;3.47;;;;;;;21.65;50.69;101857.94;4969287;28;20061;-67
2022/09/05 06:19:29;;;;;;;9.27;3.20;;;;;;;21.92;50.02;101846.88;4981439;28;20038;-67
2022/09/05 06:22:13;;;;;;;5.72;3.20;;;;;;;22.14;49.72;101857.53;4982448;28;20106;-65
2022/09/05 06:25:09;;;;;;;4.90;3.15;;;;;;;22.35;49.27;101854.94;4982295;28;20037;-65
2022/09/05 06:27:43;;;;;;;5.63;3.33;;;;;;;22.53;48.62;101855.22;4968796;28;20049;-67
2022/09/05 06:30:16;;;;;;;6.03;3.40;;;;;;;22.64;48.43;101849.84;4977726;28;20050;-65
2022/09/05 06:32:52;;;;;;;7.40;3.50;;;;;;;22.74;47.98;101847.25;4982552;28;20038;-65
2022/09/05 06:35:25;;;;;;;7.50;3.17;;;;;;;22.89;48.01;101853.06;4976899;28;20476;-68
2022/09/05 06:38:23;;;;;;;6.25;2.97;;;;;;;22.99;47.74;101852.13;4970645;28;20868;-67
2022/09/05 06:41:20;;;;;;;6.00;2.90;;;;;;;23.08;47.68;101855.84;4968584;28;20042;-65
2022/09/05 06:44:14;;;;;;;5.57;2.95;;;;;;;23.11;47.34;101850.25;4979871;28;20022;-66
2022/09/05 06:46:41;;;;;;;4.80;2.95;;;;;;;23.21;47.59;101857.41;4963375;28;20034;-65
2022/09/05 06:49:16;;;;;;;5.57;3.13;;;;;;;23.23;47.17;101847.53;4980008;28;20033;-68
2022/09/05 06:52:00;;;;;;;6.40;3.22;;;;;;;23.32;47.47;101847.53;4964246;28;20038;-65
2022/09/05 06:55:09;;;;;;;4.60;2.92;;;;;;;23.39;47.22;101850.50;4962765;28;20027;-67
2022/09/05 06:57:51;;;;;;;6.85;3.22;;;;;;;23.42;47.48;101841.41;4951627;28;20038;-71
2022/09/05 07:00:29;;;;;;;5.93;2.97;;;;;;;23.35;47.55;101851.72;4973414;28;20476;-71
2022/09/05 07:03:29;;;;;;;5.75;2.78;;;;;;;23.27;47.85;101859.56;4962955;28;20435;-71
2022/09/05 07:06:29;;;;;;;5.18;2.92;;;;;;;23.25;47.85;101861.50;4980350;28;20725;-76
2022/09/05 07:09:09;;;;;;;7.30;3.72;;;;;;;23.31;47.81;101861.81;4963663;28;20038;-75
2022/09/05 07:11:58;;;;;;;5.30;2.97;;;;;;;23.38;47.52;101859.44;4971277;28;21010;-70
2022/09/05 07:14:29;;;;;;;7.65;3.30;;;;;;;23.45;46.94;101857.94;4974208;28;20097;-70
2022/09/05 07:16:57;;;;;;;7.53;3.50;;;;;;;23.52;46.93;101867.06;4961926;28;20064;-72
2022/09/05 07:19:26;;;;;;;5.93;2.90;;;;;;;23.60;46.57;101863.72;4969299;28;20090;-73
2022/09/05 07:22:32;;;;;;;4.95;2.83;;;;;;;23.70;46.52;101864.59;4965211;28;20037;-73
2022/09/05 07:25:04;;;;;;;11.43;3.42;;;;;;;23.78;46.52;101863.88;4981202;28;20027;-71
2022/09/05 07:27:48;;;;;;;6.53;3.80;;;;;;;23.81;46.36;101855.63;4977707;28;20030;-71
2022/09/05 07:30:17;;;;;;;6.63;4.10;;;;;;;23.89;46.29;101873.59;4964403;28;20051;-76
2022/09/05 07:32:46;;;;;;;6.40;4.47;;;;;;;23.91;46.23;101874.31;4965584;28;20031;-77
2022/09/05 07:35:28;;;;;;;8.32;4.05;;;;;;;23.96;46.21;101880.06;4976160;28;20038;-75
2022/09/05 07:38:14;;;;;;;5.63;3.83;;;;;;;24.02;45.73;101883.97;4968663;28;20039;-75
2022/09/05 07:40:59;;;;;;;6.68;4.03;;;;;;;24.04;46.16;101882.88;4970880;28;20706;-75
2022/09/05 07:43:29;;;;;;;6.28;4.22;;;;;;;24.12;45.78;101887.50;4971790;28;20034;-77
2022/09/05 07:46:03;;;;;;;5.65;3.92;;;;;;;24.15;45.45;101884.56;4972869;28;20027;-81
2022/09/05 07:48:32;;;;;;;5.70;3.80;;;;;;;24.15;45.54;101881.91;4973780;28;20034;-77
2022/09/05 07:51:01;;;;;;;5.82;3.78;;;;;;;24.20;45.12;101879.66;4975818;28;20208;-78
2022/09/05 07:53:28;;;;;;;7.57;3.97;;;;;;;24.19;45.48;101882.47;4966665;28;20030;-75
2022/09/05 07:55:58;;;;;;;6.88;3.70;;;;;;;24.22;45.03;101882.19;4973662;28;20035;-79
2022/09/05 07:58:48;;;;;;;6.07;3.92;;;;;;;24.30;45.09;101886.81;4978532;28;20407;-77
2022/09/05 08:01:16;;;;;;;5.57;3.90;;;;;;;24.29;44.93;101879.78;4972376;28;20039;-75
2022/09/05 08:03:42;;;;;;;5.93;3.88;;;;;;;24.30;44.86;101886.81;4975352;28;20061;-73
2022/09/05 08:06:15;;;;;;;5.70;3.85;;;;;;;24.31;44.80;101886.66;4980843;28;20106;-76
2022/09/05 08:08:58;;;;;;;5.88;3.78;;;;;;;24.32;45.22;101890.16;4972100;28;20034;-77
2022/09/05 08:11:26;;;;;;;6.07;3.95;;;;;;;24.34;45.15;101889.06;4970168;28;20037;-75
2022/09/05 08:14:17;;;;;;;6.28;3.90;;;;;;;24.36;44.71;101880.91;4979582;28;20027;-77
2022/09/05 08:16:43;;;;;;;5.32;3.90;;;;;;;24.38;45.21;101881.63;4972406;28;20035;-76
2022/09/05 08:19:26;;;;;;;6.13;3.63;;;;;;;24.39;44.85;101885.97;4971331;28;20090;-78
2022/09/05 08:21:54;;;;;;;6.15;4.20;;;;;;;24.38;45.21;101881.63;4974105;28;20421;-75
2022/09/05 08:24:35;;;;;;;6.53;4.00;;;;;;;24.37;44.63;101874.59;4972395;28;20065;-79
2022/09/05 08:27:15;;;;;;;5.45;3.75;;;;;;;24.42;44.93;101883.03;4973051;28;20054;-80
2022/09/05 08:29:52;;;;;;;7.35;3.95;;;;;;;24.42;45.03;101883.03;4974740;28;20058;-73
2022/09/05 08:32:38;;;;;;;6.15;3.67;;;;;;;24.44;45.07;101887.22;4981693;28;20173;-77
2022/09/05 08:35:15;;;;;;;6.10;3.80;;;;;;;24.44;45.15;101887.22;4974817;28;20100;-75
2022/09/05 08:37:42;;;;;;;6.80;4.18;;;;;;;24.44;44.76;101879.22;4973640;28;20647;-77
2022/09/05 08:40:34;;;;;;;8.32;3.60;;;;;;;24.48;44.86;101886.94;4979515;28;20352;-79
2022/09/05 08:43:12;;;;;;;5.88;3.72;;;;;;;24.50;44.88;101885.81;4979525;28;20061;-73
2022/09/05 08:45:56;;;;;;;6.40;3.10;;;;;;;24.49;44.96;101883.28;4982127;28;20105;-78
2022/09/05 08:48:53;;;;;;;5.43;3.67;;;;;;;24.54;45.02;101887.19;4977975;28;20450;-74
2022/09/05 08:51:54;;;;;;;5.57;3.42;;;;;;;24.57;44.51;101883.44;4966572;28;20042;-75
2022/09/05 08:54:38;;;;;;;4.78;3.15;;;;;;;24.56;44.48;101874.63;4973834;28;20038;-72
2022/09/05 08:57:16;;;;;;;6.00;3.90;;;;;;;24.59;44.69;101874.34;4972990;28;20042;-75
2022/09/05 08:59:50;;;;;;;5.30;3.75;;;;;;;24.62;44.90;101875.88;4972096;28;20102;-74
2022/09/05 09:02:44;;;;;;;6.38;3.60;;;;;;;24.62;44.37;101866.06;4972179;28;20041;-76
2022/09/05 09:05:37;;;;;;;5.22;3.53;;;;;;;24.60;44.80;101864.50;4967449;28;20434;-77
2022/09/05 09:08:12;;;;;;;5.80;3.55;;;;;;;24.61;44.67;101859.03;4973502;28;20042;-83
2022/09/05 09:10:56;;;;;;;5.57;3.53;;;;;;;24.66;44.83;101871.94;4967401;28;20407;-75
2022/09/05 09:13:52;;;;;;;6.30;3.50;;;;;;;24.63;44.84;101867.72;4973253;28;20035;-80
2022/09/05 09:16:32;;;;;;;5.32;3.08;;;;;;;24.66;44.87;101868.41;4978498;28;20048;-78
2022/09/05 09:19:31;;;;;;;4.97;3.33;;;;;;;24.69;44.82;101857.47;4968828;28;20531;-79
2022/09/05 09:22:17;;;;;;;5.22;3.20;;;;;;;24.70;44.78;101862.66;4973746;28;20037;-80
2022/09/05 09:24:58;;;;;;;6.38;3.75;;;;;;;24.71;44.77;101856.34;4976491;28;20034;-81
2022/09/05 09:28:04;;;;;;;5.30;3.22;;;;;;;24.73;45.03;101858.88;4974029;28;20034;-75
2022/09/05 09:30:32;;;;;;;6.38;3.58;;;;;;;24.68;44.79;101848.63;4972446;28;20129;-81
2022/09/05 09:33:04;;;;;;;6.93;3.20;;;;;;;24.69;44.90;101844.13;4973224;28;20383;-78
2022/09/05 09:36:00;;;;;;;5.97;3.20;;;;;;;24.74;45.10;101853.41;4975565;28;20089;-77
2022/09/05 09:38:26;;;;;;;5.30;3.17;;;;;;;24.72;44.62;101847.38;4973168;28;20475;-78
2022/09/05 09:41:31;;;;;;;5.67;3.07;;;;;;;24.78;44.71;101856.59;4972843;28;20065;-80
2022/09/05 09:44:45;;;;;;;4.68;3.00;;;;;;;24.79;44.99;101848.47;4969814;28;20267;-74
2022/09/05 09:47:16;;;;;;;4.30;2.83;;;;;;;24.77;45.09;101847.78;4979439;28;20049;-78
2022/09/05 09:49:44;;;;;;;5.63;3.10;;;;;;;24.81;44.97;101851.00;4970438;28;20035;-75
2022/09/05 09:52:37;;;;;;;6.65;3.20;;;;;;;24.80;44.64;101844.81;4974906;28;20517;-73
2022/09/05 09:55:39;;;;;;;4.40;2.80;;;;;;;24.81;44.62;101837.66;4965138;28;20472;-76
2022/09/05 09:58:27;;;;;;;6.40;2.95;;;;;;;24.75;44.74;101827.56;4971196;28;20449;-75
2022/09/05 10:01:30;;;;;;;5.10;2.97;;;;;;;24.80;44.48;101843.97;4976972;28;20026;-75
2022/09/05 10:04:17;;;;;;;5.78;3.00;;;;;;;24.77;44.59;101830.97;4979409;28;20030;-78
2022/09/05 10:07:00;;;;;;;5.55;3.03;;;;;;;24.82;44.82;101831.34;4982407;28;20026;-77
2022/09/05 10:09:44;;;;;;;4.65;2.55;;;;;;;24.83;44.57;101829.50;4964165;28;20029;-77
2022/09/05 10:12:34;;;;;;;4.93;3.05;;;;;;;24.84;44.58;101832.03;4980109;28;20848;-76
2022/09/05 10:15:18;;;;;;;5.10;2.53;;;;;;;24.82;44.74;101823.34;4962014;28;20035;-75
2022/09/05 10:18:15;;;;;;;5.65;2.90;;;;;;;24.83;44.40;101827.69;4967318;28;20034;-78
2022/09/05 10:21:14;;;;;;;4.97;2.65;;;;;;;24.81;44.51;101811.84;4970584;28;20564;-77
2022/09/05 10:24:04;;;;;;;4.20;2.47;;;;;;;24.81;44.21;101808.34;4963146;28;20133;-78
2022/09/05 10:26:49;;;;;;;4.68;2.42;;;;;;;24.82;44.20;101810.03;4962800;28;20045;-75
2022/09/05 10:29:37;;;;;;;4.70;2.70;;;;;;;24.81;44.62;101816.34;4976424;28;20034;-80
2022/09/05 10:32:12;;;;;;;5.93;2.58;;;;;;;24.78;44.14;101801.50;4967992;28;20046;-77
2022/09/05 10:34:57;;;;;;;4.63;2.58;;;;;;;24.80;44.15;101807.50;4967470;28;20042;-80
2022/09/05 10:37:34;;;;;;;4.60;2.40;;;;;;;24.83;44.64;101808.19;4975292;28;20129;-78
2022/09/05 10:40:05;;;;;;;4.38;2.85;;;;;;;24.79;44.13;101797.00;4980064;28;20038;-78
2022/09/05 10:42:42;;;;;;;4.70;2.50;;;;;;;24.80;44.59;101799.50;4981701;28;20077;-77
2022/09/05 10:45:45;;;;;;;4.82;3.08;;;;;;;24.83;44.52;101803.69;4980112;28;20495;-78
2022/09/05 10:48:16;;;;;;;4.43;2.63;;;;;;;24.84;44.11;101800.03;4961638;28;20041;-79
2022/09/05 10:50:47;;;;;;;4.70;2.60;;;;;;;24.82;44.15;101796.69;4963908;28;20046;-79
2022/09/05 10:53:39;;;;;;;4.53;2.50;;;;;;;24.85;44.04;101799.06;4969509;28;20696;-80
2022/09/05 10:56:28;;;;;;;4.85;2.40;;;;;;;24.87;43.83;101796.25;4972648;28;20034;-80
2022/09/05 10:59:14;;;;;;;4.35;2.70;;;;;;;24.85;43.86;101783.06;4971387;28;20034;-77
2022/09/05 11:01:50;;;;;;;4.68;2.30;;;;;;;24.86;44.15;101790.06;4980503;28;20038;-78
2022/09/05 11:04:38;;;;;;;3.78;2.03;;;;;;;24.88;43.85;101789.91;4980031;28;21082;-76
2022/09/05 11:07:11;;;;;;;4.63;2.40;;;;;;;24.86;43.83;101778.56;4974650;28;20026;-79
2022/09/05 11:09:58;;;;;;;3.83;2.30;;;;;;;24.91;43.49;101787.81;4974406;28;20074;-78
2022/09/05 11:13:07;;;;;;;5.38;2.40;;;;;;;24.91;43.61;101778.97;4968245;28;20039;-77
2022/09/05 11:16:05;;;;;;;4.97;2.30;;;;;;;24.91;43.82;101777.16;4966900;28;20047;-77
2022/09/05 11:18:54;;;;;;;3.67;1.98;;;;;;;24.91;43.39;101763.84;4971131;28;21248;-78
2022/09/05 11:21:55;;;;;;;4.05;2.05;;;;;;;24.94;43.71;101768.00;4968579;28;20236;-77
2022/09/05 11:24:36;;;;;;;4.22;2.17;;;;;;;24.96;43.48;101774.06;4967949;28;20074;-79
2022/09/05 11:27:10;;;;;;;4.20;2.10;;;;;;;24.91;43.51;101769.16;4975890;28;20042;-78
2022/09/05 11:29:44;;;;;;;4.32;2.20;;;;;;;24.91;43.79;101761.16;4980907;28;20030;-80
2022/09/05 11:32:35;;;;;;;5.20;2.70;;;;;;;24.95;43.63;101767.03;4971726;28;20398;-79
2022/09/05 11:35:17;;;;;;;4.82;2.13;;;;;;;24.90;43.43;101754.13;4962029;28;20046;-80
2022/09/05 11:38:13;;;;;;;4.25;2.30;;;;;;;24.96;43.75;101764.22;4961805;28;20066;-78
2022/09/05 11:41:02;;;;;;;5.70;2.28;;;;;;;24.91;43.34;101753.16;4968529;28;20060;-79
2022/09/05 11:43:48;;;;;;;3.53;2.25;;;;;;;24.86;43.21;101746.59;4974802;28;20035;-79
2022/09/05 11:46:32;;;;;;;3.72;2.03;;;;;;;24.83;43.61;101747.72;4987510;28;20066;-79
2022/09/05 11:49:25;;;;;;;3.88;2.08;;;;;;;24.98;43.15;101764.06;4969516;28;20039;-80
2022/09/05 11:52:32;;;;;;;4.55;2.22;;;;;;;24.99;43.53;101761.25;4970313;28;20058;-73
2022/09/05 11:55:25;;;;;;;3.72;2.22;;;;;;;25.01;43.03;101761.09;4973500;28;20030;-68
2022/09/05 11:58:12;;;;;;;4.13;2.22;;;;;;;25.02;43.20;101756.59;4971028;28;20058;-75
2022/09/05 12:01:14;;;;;;;4.70;1.90;;;;;;;25.08;43.32;101761.34;4956838;28;20514;-69
2022/09/05 12:03:49;;;;;;;3.40;1.92;;;;;;;25.08;43.41;101756.84;4958486;28;20050;-69
2022/09/05 12:06:39;;;;;;;4.90;2.25;;;;;;;25.11;43.05;101755.72;4971768;28;20022;-72
2022/09/05 12:09:16;;;;;;;5.30;2.17;;;;;;;25.11;43.33;101756.56;4970026;28;20018;-70
2022/09/05 12:12:08;;;;;;;3.78;1.90;;;;;;;25.09;42.53;101744.38;4970107;28;20424;-72
2022/09/05 12:14:46;;;;;;;4.65;2.03;;;;;;;25.12;42.47;101744.91;4968970;28;20096;-78
2022/09/05 12:17:25;;;;;;;3.08;1.70;;;;;;;25.12;42.85;101738.75;4971155;28;20034;-79
2022/09/05 12:20:02;;;;;;;4.22;1.95;;;;;;;24.99;42.69;101715.94;4972706;28;20437;-69
2022/09/05 12:22:52;;;;;;;3.63;1.98;;;;;;;25.09;42.91;101737.19;4964255;28;20367;-72
2022/09/05 12:25:23;;;;;;;3.97;2.05;;;;;;;25.07;42.77;101733.00;4968623;28;20064;-69
2022/09/05 12:27:53;;;;;;;3.25;1.73;;;;;;;25.09;42.67;101736.38;4964978;28;20027;-70
2022/09/05 12:30:28;;;;;;;4.45;2.00;;;;;;;25.10;43.20;101728.22;4970419;28;20074;-68
2022/09/05 12:33:08;;;;;;;4.38;2.17;;;;;;;25.04;43.14;101725.28;4963295;28;20042;-77
2022/09/05 12:35:50;;;;;;;3.05;1.80;;;;;;;25.05;42.86;101733.13;4967224;28;20057;-69
2022/09/05 12:38:37;;;;;;;3.45;1.95;;;;;;;25.01;42.94;101731.78;4967959;28;20109;-70